createdAt,value
2023-05-02T00:00:34.405Z,0.00
2023-05-02T00:01:34.353Z,0.00
2023-05-02T00:02:34.475Z,0.00
2023-05-02T00:03:34.503Z,0.00
2023-05-02T00:04:34.532Z,0.00
2023-05-02T00:05:34.287Z,0.00
2023-05-02T00:06:34.322Z,0.00
2023-05-02T00:07:34.267Z,0.00
2023-05-02T00:08:34.269Z,0.00
2023-05-02T00:09:34.231Z,0.00
2023-05-02T00:10:34.222Z,0.00
2023-05-02T00:11:34.203Z,0.00
2023-05-02T00:12:34.213Z,0.00
2023-05-02T00:13:34.173Z,0.00
2023-05-02T00:14:34.178Z,0.00
2023-05-02T00:15:34.141Z,0.00
2023-05-02T00:16:34.194Z,0.00
2023-05-02T00:17:34.219Z,0.00
2023-05-02T00:18:34.106Z,0.00
2023-05-02T00:19:34.096Z,0.00
2023-05-02T00:20:34.075Z,0.00
2023-05-02T00:21:34.109Z,0.00
2023-05-02T00:22:34.037Z,0.00
2023-05-02T00:23:34.021Z,0.00
2023-05-02T00:24:34.015Z,0.00
2023-05-02T00:25:34.022Z,0.00
2023-05-02T00:26:34.016Z,0.00
2023-05-02T00:27:33.964Z,0.00
2023-05-02T00:28:34.018Z,0.00
2023-05-02T00:29:33.952Z,0.00
2023-05-02T00:30:33.926Z,0.00
2023-05-02T00:31:34.041Z,0.00
2023-05-02T00:32:33.954Z,0.00
2023-05-02T00:33:33.891Z,0.00
2023-05-02T00:34:33.894Z,0.00
2023-05-02T00:35:33.854Z,0.00
2023-05-02T00:36:33.858Z,0.00
2023-05-02T00:37:33.813Z,0.00
2023-05-02T00:38:33.818Z,0.00
2023-05-02T00:39:33.812Z,0.00
2023-05-02T00:40:33.776Z,0.00
2023-05-02T00:41:33.815Z,0.00
2023-05-02T00:42:33.740Z,0.00
2023-05-02T00:43:33.777Z,0.00
2023-05-02T00:44:33.709Z,0.00
2023-05-02T00:45:33.692Z,0.00
2023-05-02T00:46:33.729Z,0.00
2023-05-02T00:47:33.751Z,0.00
2023-05-02T00:48:33.709Z,0.00
2023-05-02T00:49:33.647Z,0.00
2023-05-02T00:50:33.626Z,0.00
2023-05-02T00:51:33.607Z,0.00
2023-05-02T00:52:33.588Z,0.00
2023-05-02T00:53:33.571Z,0.00
2023-05-02T00:54:33.563Z,0.00
2023-05-02T00:55:33.548Z,0.00
2023-05-02T00:56:33.527Z,0.00
2023-05-02T00:57:33.533Z,0.00
2023-05-02T00:58:33.506Z,0.00
2023-05-02T00:59:33.518Z,0.00
2023-05-02T01:00:33.475Z,0.00
2023-05-02T01:01:33.489Z,0.00
2023-05-02T01:02:33.509Z,0.00
2023-05-02T01:03:33.487Z,0.00
2023-05-02T01:04:33.409Z,0.00
2023-05-02T01:05:33.460Z,0.00
2023-05-02T01:06:33.430Z,0.00
2023-05-02T01:07:33.374Z,0.00
2023-05-02T01:08:33.357Z,0.00
2023-05-02T01:09:33.333Z,0.00
2023-05-02T01:10:33.334Z,0.00
2023-05-02T01:11:33.328Z,0.00
2023-05-02T01:12:33.286Z,0.00
2023-05-02T01:13:33.268Z,0.00
2023-05-02T01:14:33.264Z,0.00
2023-05-02T01:15:33.242Z,0.00
2023-05-02T01:16:33.250Z,0.00
2023-05-02T01:17:33.262Z,0.00
2023-05-02T01:18:33.191Z,0.00
2023-05-02T01:19:33.178Z,0.00
2023-05-02T01:20:33.168Z,0.00
2023-05-02T01:21:33.154Z,0.00
2023-05-02T01:22:33.165Z,0.00
2023-05-02T01:23:33.126Z,0.00
2023-05-02T01:24:33.115Z,0.00
2023-05-02T01:25:33.085Z,0.00
2023-05-02T01:26:33.088Z,0.00
2023-05-02T01:27:33.095Z,0.00
2023-05-02T01:28:33.042Z,0.00
2023-05-02T01:29:33.023Z,0.00
2023-05-02T01:30:33.009Z,0.00
2023-05-02T01:31:33.048Z,0.00
2023-05-02T01:32:33.042Z,0.00
2023-05-02T01:33:32.962Z,0.00
2023-05-02T01:34:32.977Z,0.00
2023-05-02T01:35:32.939Z,0.00
2023-05-02T01:36:32.925Z,0.00
2023-05-02T01:37:32.939Z,0.00
2023-05-02T01:38:32.897Z,0.00
2023-05-02T01:39:32.916Z,0.00
2023-05-02T01:40:32.857Z,0.00
2023-05-02T01:41:32.854Z,0.00
2023-05-02T01:42:32.830Z,0.00
2023-05-02T01:43:32.850Z,0.00
2023-05-02T01:44:32.829Z,0.00
2023-05-02T01:45:32.784Z,0.00
2023-05-02T01:46:32.851Z,0.00
2023-05-02T01:47:32.845Z,0.00
2023-05-02T01:48:32.792Z,0.00
2023-05-02T01:49:32.721Z,0.00
2023-05-02T01:50:32.712Z,0.00
2023-05-02T01:51:32.696Z,0.00
2023-05-02T01:52:32.707Z,0.00
2023-05-02T01:53:32.676Z,0.00
2023-05-02T01:54:32.690Z,0.00
2023-05-02T01:55:32.634Z,0.00
2023-05-02T01:56:32.613Z,0.00
2023-05-02T01:57:32.611Z,0.00
2023-05-02T01:58:32.586Z,0.00
2023-05-02T01:59:32.607Z,0.00
2023-05-02T02:00:32.570Z,0.00
2023-05-02T02:01:32.622Z,0.00
2023-05-02T02:02:32.529Z,0.00
2023-05-02T02:03:32.541Z,0.00
2023-05-02T02:04:32.598Z,0.00
2023-05-02T02:05:32.485Z,0.00
2023-05-02T02:06:32.476Z,0.00
2023-05-02T02:07:32.448Z,0.00
2023-05-02T02:08:32.440Z,0.00
2023-05-02T02:09:32.421Z,0.00
2023-05-02T02:10:32.438Z,0.00
2023-05-02T02:11:32.386Z,0.00
2023-05-02T02:12:32.376Z,0.00
2023-05-02T02:13:32.354Z,0.00
2023-05-02T02:14:32.338Z,0.00
2023-05-02T02:15:32.321Z,0.00
2023-05-02T02:16:32.367Z,0.00
2023-05-02T02:17:32.335Z,0.00
2023-05-02T02:18:32.283Z,0.00
2023-05-02T02:19:32.257Z,0.00
2023-05-02T02:20:32.280Z,0.00
2023-05-02T02:21:32.229Z,0.00
2023-05-02T02:22:32.214Z,0.00
2023-05-02T02:23:32.215Z,0.00
2023-05-02T02:24:32.183Z,0.00
2023-05-02T02:25:32.184Z,0.00
2023-05-02T02:26:32.152Z,0.00
2023-05-02T02:27:32.187Z,0.00
2023-05-02T02:28:32.116Z,0.00
2023-05-02T02:29:32.104Z,0.00
2023-05-02T02:30:32.162Z,0.00
2023-05-02T02:31:32.202Z,0.00
2023-05-02T02:32:32.084Z,0.00
2023-05-02T02:33:32.069Z,0.00
2023-05-02T02:34:32.044Z,0.00
2023-05-02T02:35:32.010Z,0.00
2023-05-02T02:36:32.015Z,0.00
2023-05-02T02:37:32.008Z,0.00
2023-05-02T02:38:32.033Z,0.00
2023-05-02T02:39:31.961Z,0.00
2023-05-02T02:40:31.958Z,0.00
2023-05-02T02:41:31.924Z,0.00
2023-05-02T02:42:31.899Z,0.00
2023-05-02T02:43:31.887Z,0.00
2023-05-02T02:44:31.895Z,0.00
2023-05-02T02:45:31.847Z,0.00
2023-05-02T02:46:31.929Z,0.00
2023-05-02T02:47:31.852Z,0.00
2023-05-02T02:48:31.801Z,0.00
2023-05-02T02:49:31.838Z,0.00
2023-05-02T02:50:31.773Z,0.00
2023-05-02T02:51:31.753Z,0.00
2023-05-02T02:52:31.744Z,0.00
2023-05-02T02:53:31.721Z,0.00
2023-05-02T02:54:31.709Z,0.00
2023-05-02T02:55:31.702Z,0.00
2023-05-02T02:56:31.693Z,0.00
2023-05-02T02:57:31.685Z,0.00
2023-05-02T02:58:31.653Z,0.00
2023-05-02T02:59:31.627Z,0.00
2023-05-02T03:00:31.639Z,0.00
2023-05-02T03:01:31.649Z,0.00
2023-05-02T03:02:31.642Z,0.00
2023-05-02T03:03:31.592Z,0.00
2023-05-02T03:04:31.592Z,0.00
2023-05-02T03:05:31.539Z,0.00
2023-05-02T03:06:31.604Z,0.00
2023-05-02T03:07:31.505Z,0.00
2023-05-02T03:08:31.490Z,0.00
2023-05-02T03:09:31.471Z,0.00
2023-05-02T03:10:31.453Z,0.00
2023-05-02T03:11:31.459Z,0.00
2023-05-02T03:12:31.423Z,0.00
2023-05-02T03:13:31.447Z,0.00
2023-05-02T03:14:31.385Z,0.00
2023-05-02T03:15:31.371Z,0.00
2023-05-02T03:16:31.453Z,0.00
2023-05-02T03:17:31.390Z,0.00
2023-05-02T03:18:31.329Z,0.00
2023-05-02T03:19:31.311Z,0.00
2023-05-02T03:20:31.309Z,0.00
2023-05-02T03:21:31.280Z,0.00
2023-05-02T03:22:31.290Z,0.00
2023-05-02T03:23:31.250Z,0.00
2023-05-02T03:24:31.253Z,0.00
2023-05-02T03:25:31.214Z,0.00
2023-05-02T03:26:31.205Z,0.00
2023-05-02T03:27:31.228Z,0.00
2023-05-02T03:28:31.170Z,0.00
2023-05-02T03:29:31.227Z,0.00
2023-05-02T03:30:31.150Z,0.00
2023-05-02T03:31:31.144Z,0.00
2023-05-02T03:32:31.151Z,0.00
2023-05-02T03:33:31.088Z,0.00
2023-05-02T03:34:31.073Z,0.00
2023-05-02T03:35:31.057Z,0.00
2023-05-02T03:36:31.040Z,4.00
2023-05-02T03:37:31.025Z,4.00
2023-05-02T03:38:31.027Z,0.00
2023-05-02T03:39:30.994Z,0.00
2023-05-02T03:40:31.031Z,4.00
2023-05-02T03:41:30.983Z,4.00
2023-05-02T03:42:30.946Z,4.00
2023-05-02T03:43:30.949Z,8.00
2023-05-02T03:44:30.912Z,8.00
2023-05-02T03:45:30.902Z,8.00
2023-05-02T03:46:31.116Z,8.00
2023-05-02T03:47:30.894Z,12.00
2023-05-02T03:48:30.858Z,12.00
2023-05-02T03:49:30.835Z,12.00
2023-05-02T03:50:30.820Z,12.00
2023-05-02T03:51:30.809Z,12.00
2023-05-02T03:52:30.832Z,12.00
2023-05-02T03:53:30.771Z,16.00
2023-05-02T03:54:30.759Z,16.00
2023-05-02T03:55:30.738Z,16.00
2023-05-02T03:56:30.726Z,20.00
2023-05-02T03:57:30.741Z,20.00
2023-05-02T03:58:30.721Z,20.00
2023-05-02T03:59:30.680Z,24.00
2023-05-02T04:00:30.661Z,24.00
2023-05-02T04:01:30.682Z,20.00
2023-05-02T04:02:30.757Z,20.00
2023-05-02T04:03:30.662Z,28.00
2023-05-02T04:04:30.614Z,32.00
2023-05-02T04:05:30.589Z,36.00
2023-05-02T04:06:30.637Z,40.00
2023-05-02T04:07:30.549Z,40.00
2023-05-02T04:08:30.560Z,40.00
2023-05-02T04:09:30.527Z,36.00
2023-05-02T04:10:30.509Z,40.00
2023-05-02T04:11:30.506Z,40.00
2023-05-02T04:12:30.499Z,32.00
2023-05-02T04:13:30.470Z,32.00
2023-05-02T04:14:30.635Z,36.00
2023-05-02T04:15:30.439Z,44.00
2023-05-02T04:16:30.454Z,44.00
2023-05-02T04:17:30.458Z,48.00
2023-05-02T04:18:30.377Z,56.00
2023-05-02T04:19:30.365Z,68.00
2023-05-02T04:20:30.343Z,76.00
2023-05-02T04:21:30.326Z,80.00
2023-05-02T04:22:30.316Z,100.00
2023-05-02T04:23:30.296Z,120.00
2023-05-02T04:24:30.286Z,128.00
2023-05-02T04:25:30.461Z,140.00
2023-05-02T04:26:30.246Z,144.00
2023-05-02T04:27:30.240Z,160.00
2023-05-02T04:28:30.241Z,184.00
2023-05-02T04:29:30.220Z,164.00
2023-05-02T04:30:30.188Z,168.00
2023-05-02T04:31:30.293Z,172.00
2023-05-02T04:32:30.211Z,168.00
2023-05-02T04:33:30.281Z,136.00
2023-05-02T04:34:30.167Z,116.00
2023-05-02T04:35:30.102Z,72.00
2023-05-02T04:36:30.083Z,64.00
2023-05-02T04:37:30.080Z,60.00
2023-05-02T04:38:30.061Z,64.00
2023-05-02T04:39:30.105Z,68.00
2023-05-02T04:40:30.215Z,72.00
2023-05-02T04:41:30.002Z,76.00
2023-05-02T04:42:29.988Z,88.00
2023-05-02T04:43:29.971Z,92.00
2023-05-02T04:44:29.987Z,92.00
2023-05-02T04:45:29.936Z,84.00
2023-05-02T04:46:30.026Z,76.00
2023-05-02T04:47:29.955Z,92.00
2023-05-02T04:48:29.925Z,108.00
2023-05-02T04:49:29.894Z,116.00
2023-05-02T04:50:29.858Z,104.00
2023-05-02T04:51:29.857Z,108.00
2023-05-02T04:52:29.859Z,116.00
2023-05-02T04:53:29.812Z,104.00
2023-05-02T04:54:29.808Z,84.00
2023-05-02T04:55:29.777Z,76.00
2023-05-02T04:56:29.789Z,92.00
2023-05-02T04:57:29.743Z,116.00
2023-05-02T04:58:29.760Z,140.00
2023-05-02T04:59:29.714Z,172.00
2023-05-02T05:00:30.312Z,160.00
2023-05-02T05:01:29.734Z,136.00
2023-05-02T05:02:29.754Z,120.00
2023-05-02T05:03:29.870Z,108.00
2023-05-02T05:04:29.638Z,72.00
2023-05-02T05:05:29.887Z,52.00
2023-05-02T05:06:29.650Z,52.00
2023-05-02T05:07:29.583Z,60.00
2023-05-02T05:08:29.604Z,68.00
2023-05-02T05:09:29.560Z,72.00
2023-05-02T05:10:29.587Z,84.00
2023-05-02T05:11:29.522Z,100.00
2023-05-02T05:12:29.504Z,124.00
2023-05-02T05:13:29.496Z,136.00
2023-05-02T05:14:29.524Z,148.00
2023-05-02T05:15:29.477Z,132.00
2023-05-02T05:16:29.486Z,124.00
2023-05-02T05:17:29.473Z,120.00
2023-05-02T05:18:29.410Z,136.00
2023-05-02T05:19:29.580Z,156.00
2023-05-02T05:20:29.376Z,168.00
2023-05-02T05:21:29.371Z,176.00
2023-05-02T05:22:29.343Z,172.00
2023-05-02T05:23:29.328Z,164.00
2023-05-02T05:24:29.347Z,172.00
2023-05-02T05:25:29.323Z,172.00
2023-05-02T05:26:29.276Z,200.00
2023-05-02T05:27:29.268Z,180.00
2023-05-02T05:28:29.247Z,188.00
2023-05-02T05:29:29.227Z,192.00
2023-05-02T05:30:29.249Z,196.00
2023-05-02T05:31:29.233Z,196.00
2023-05-02T05:32:29.275Z,244.00
2023-05-02T05:33:29.172Z,216.00
2023-05-02T05:34:29.148Z,204.00
2023-05-02T05:35:29.191Z,212.00
2023-05-02T05:36:29.133Z,236.00
2023-05-02T05:37:29.131Z,232.00
2023-05-02T05:38:29.084Z,196.00
2023-05-02T05:39:29.098Z,204.00
2023-05-02T05:40:29.051Z,224.00
2023-05-02T05:41:29.030Z,228.00
2023-05-02T05:42:29.019Z,236.00
2023-05-02T05:43:29.030Z,228.00
2023-05-02T05:44:28.990Z,220.00
2023-05-02T05:45:28.976Z,232.00
2023-05-02T05:46:29.008Z,252.00
2023-05-02T05:47:29.061Z,316.00
2023-05-02T05:48:28.986Z,520.00
2023-05-02T05:49:28.902Z,620.00
2023-05-02T05:50:28.892Z,648.00
2023-05-02T05:51:29.081Z,812.00
2023-05-02T05:52:28.847Z,844.00
2023-05-02T05:53:28.856Z,676.00
2023-05-02T05:54:28.820Z,704.00
2023-05-02T05:55:28.822Z,756.00
2023-05-02T05:56:28.793Z,784.00
2023-05-02T05:57:28.815Z,760.00
2023-05-02T05:58:28.753Z,732.00
2023-05-02T05:59:28.736Z,704.00
2023-05-02T06:00:28.732Z,820.00
2023-05-02T06:01:28.722Z,892.00
2023-05-02T06:02:28.809Z,844.00
2023-05-02T06:03:28.742Z,900.00
2023-05-02T06:04:28.749Z,924.00
2023-05-02T06:05:28.652Z,820.00
2023-05-02T06:06:28.664Z,812.00
2023-05-02T06:07:28.642Z,760.00
2023-05-02T06:08:28.732Z,776.00
2023-05-02T06:09:28.762Z,728.00
2023-05-02T06:10:28.574Z,776.00
2023-05-02T06:11:28.550Z,832.00
2023-05-02T06:12:28.520Z,1004.00
2023-05-02T06:13:28.503Z,1016.00
2023-05-02T06:14:28.561Z,1008.00
2023-05-02T06:15:28.471Z,1012.00
2023-05-02T06:16:28.453Z,1048.00
2023-05-02T06:17:28.489Z,1136.00
2023-05-02T06:18:28.420Z,1204.00
2023-05-02T06:19:28.409Z,1252.00
2023-05-02T06:20:28.436Z,1368.00
2023-05-02T06:21:28.389Z,1412.00
2023-05-02T06:22:28.357Z,1392.00
2023-05-02T06:23:28.343Z,1464.00
2023-05-02T06:24:28.322Z,1684.00
2023-05-02T06:25:28.340Z,1844.00
2023-05-02T06:26:28.289Z,1984.00
2023-05-02T06:27:28.271Z,2068.00
2023-05-02T06:28:28.288Z,2084.00
2023-05-02T06:29:28.235Z,2180.00
2023-05-02T06:30:28.285Z,2216.00
2023-05-02T06:31:28.260Z,2124.00
2023-05-02T06:32:28.234Z,2060.00
2023-05-02T06:33:28.170Z,2112.00
2023-05-02T06:34:28.157Z,2148.00
2023-05-02T06:35:28.343Z,2116.00
2023-05-02T06:36:28.116Z,2144.00
2023-05-02T06:37:28.101Z,2180.00
2023-05-02T06:38:28.089Z,2248.00
2023-05-02T06:39:28.077Z,2284.00
2023-05-02T06:40:28.096Z,2312.00
2023-05-02T06:41:28.252Z,2328.00
2023-05-02T06:42:28.016Z,2232.00
2023-05-02T06:43:28.009Z,2172.00
2023-05-02T06:44:27.989Z,2188.00
2023-05-02T06:45:27.990Z,2112.00
2023-05-02T06:46:27.982Z,2108.00
2023-05-02T06:47:27.991Z,2148.00
2023-05-02T06:48:27.960Z,2272.00
2023-05-02T06:49:27.902Z,2420.00
2023-05-02T06:50:27.885Z,2560.00
2023-05-02T06:51:27.935Z,2768.00
2023-05-02T06:52:28.007Z,3136.00
2023-05-02T06:53:27.836Z,3040.00
2023-05-02T06:54:27.832Z,3312.00
2023-05-02T06:55:27.807Z,3100.00
2023-05-02T06:56:27.794Z,3188.00
2023-05-02T06:57:27.784Z,3292.00
2023-05-02T06:58:27.856Z,3188.00
2023-05-02T06:59:27.761Z,3192.00
2023-05-02T07:00:27.749Z,2952.00
2023-05-02T07:01:27.795Z,2748.00
2023-05-02T07:02:27.714Z,2572.00
2023-05-02T07:03:27.679Z,2460.00
2023-05-02T07:04:27.721Z,2480.00
2023-05-02T07:05:27.677Z,2496.00
2023-05-02T07:06:27.696Z,2572.00
2023-05-02T07:07:27.665Z,2648.00
2023-05-02T07:08:27.595Z,2688.00
2023-05-02T07:09:27.578Z,2756.00
2023-05-02T07:10:27.560Z,2860.00
2023-05-02T07:11:27.567Z,3008.00
2023-05-02T07:12:27.528Z,2952.00
2023-05-02T07:13:27.523Z,2912.00
2023-05-02T07:14:27.530Z,2764.00
2023-05-02T07:15:27.505Z,2852.00
2023-05-02T07:16:27.491Z,2984.00
2023-05-02T07:17:27.483Z,2732.00
2023-05-02T07:18:27.456Z,2644.00
2023-05-02T07:19:27.424Z,2400.00
2023-05-02T07:20:27.420Z,2120.00
2023-05-02T07:21:27.386Z,2100.00
2023-05-02T07:22:27.398Z,2208.00
2023-05-02T07:23:27.356Z,2144.00
2023-05-02T07:24:27.341Z,2268.00
2023-05-02T07:25:27.342Z,2188.00
2023-05-02T07:26:27.406Z,2316.00
2023-05-02T07:27:27.302Z,2392.00
2023-05-02T07:28:27.269Z,2612.00
2023-05-02T07:29:27.266Z,2356.00
2023-05-02T07:30:27.244Z,2308.00
2023-05-02T07:31:27.277Z,2468.00
2023-05-02T07:32:27.585Z,2608.00
2023-05-02T07:33:27.218Z,2796.00
2023-05-02T07:34:27.174Z,3132.00
2023-05-02T07:35:27.169Z,3160.00
2023-05-02T07:36:27.170Z,2996.00
2023-05-02T07:37:27.157Z,2812.00
2023-05-02T07:38:27.120Z,2716.00
2023-05-02T07:39:27.100Z,2736.00
2023-05-02T07:40:27.112Z,2720.00
2023-05-02T07:41:27.066Z,2532.00
2023-05-02T07:42:27.051Z,2428.00
2023-05-02T07:43:27.078Z,2672.00
2023-05-02T07:44:27.017Z,2752.00
2023-05-02T07:45:27.009Z,2644.00
2023-05-02T07:46:27.135Z,2648.00
2023-05-02T07:47:27.098Z,2592.00
2023-05-02T07:48:28.068Z,2664.00
2023-05-02T07:49:26.939Z,2552.00
2023-05-02T07:50:26.965Z,2488.00
2023-05-02T07:51:26.920Z,2320.00
2023-05-02T07:52:26.889Z,2180.00
2023-05-02T07:53:26.878Z,2240.00
2023-05-02T07:54:26.855Z,2384.00
2023-05-02T07:55:26.841Z,2464.00
2023-05-02T07:56:26.852Z,2376.00
2023-05-02T07:57:26.822Z,2428.00
2023-05-02T07:58:26.801Z,2268.00
2023-05-02T07:59:26.817Z,2264.00
2023-05-02T08:00:26.784Z,2476.00
2023-05-02T08:01:26.779Z,2724.00
2023-05-02T08:02:26.855Z,2808.00
2023-05-02T08:03:26.866Z,2852.00
2023-05-02T08:04:26.792Z,2516.00
2023-05-02T08:05:26.677Z,2508.00
2023-05-02T08:06:26.741Z,2556.00
2023-05-02T08:07:26.647Z,2736.00
2023-05-02T08:08:26.717Z,2996.00
2023-05-02T08:09:26.612Z,3172.00
2023-05-02T08:10:26.608Z,3480.00
2023-05-02T08:11:26.606Z,3796.00
2023-05-02T08:12:26.564Z,3928.00
2023-05-02T08:13:26.574Z,4180.00
2023-05-02T08:14:26.530Z,4076.00
2023-05-02T08:15:26.537Z,4048.00
2023-05-02T08:16:26.562Z,3952.00
2023-05-02T08:17:26.538Z,4112.00
2023-05-02T08:18:26.521Z,4316.00
2023-05-02T08:19:26.478Z,4320.00
2023-05-02T08:20:26.431Z,4520.00
2023-05-02T08:21:26.457Z,4576.00
2023-05-02T08:22:26.406Z,4364.00
2023-05-02T08:23:26.385Z,4108.00
2023-05-02T08:24:26.374Z,3860.00
2023-05-02T08:25:26.350Z,3688.00
2023-05-02T08:26:26.547Z,3688.00
2023-05-02T08:27:26.321Z,3520.00
2023-05-02T08:28:26.304Z,3544.00
2023-05-02T08:29:26.286Z,3740.00
2023-05-02T08:30:26.371Z,3828.00
2023-05-02T08:31:26.349Z,3932.00
2023-05-02T08:32:26.238Z,4276.00
2023-05-02T08:33:26.236Z,4440.00
2023-05-02T08:34:26.218Z,4428.00
2023-05-02T08:35:26.192Z,4632.00
2023-05-02T08:36:26.178Z,4492.00
2023-05-02T08:37:26.181Z,4904.00
2023-05-02T08:38:26.144Z,4860.00
2023-05-02T08:39:26.123Z,3644.00
2023-05-02T08:40:38.262Z,3492.00
2023-05-02T08:41:26.094Z,3864.00
2023-05-02T08:42:26.084Z,4060.00
2023-05-02T08:43:26.069Z,4392.00
2023-05-02T08:44:26.052Z,3920.00
2023-05-02T08:45:26.028Z,3988.00
2023-05-02T08:46:26.061Z,3384.00
2023-05-02T08:47:26.111Z,3284.00
2023-05-02T08:48:25.993Z,3504.00
2023-05-02T08:49:25.973Z,3492.00
2023-05-02T08:50:25.948Z,4116.00
2023-05-02T08:51:25.949Z,3936.00
2023-05-02T08:52:25.952Z,6108.00
2023-05-02T08:53:25.901Z,3984.00
2023-05-02T08:54:25.896Z,3940.00
2023-05-02T08:55:25.868Z,3920.00
2023-05-02T08:56:25.858Z,6144.00
2023-05-02T08:57:25.837Z,9408.00
2023-05-02T08:58:25.836Z,6704.00
2023-05-02T08:59:25.811Z,4576.00
2023-05-02T09:00:25.866Z,4300.00
2023-05-02T09:01:25.782Z,3644.00
2023-05-02T09:02:25.855Z,3236.00
2023-05-02T09:03:25.754Z,3184.00
2023-05-02T09:04:25.823Z,3304.00
2023-05-02T09:05:25.719Z,3732.00
2023-05-02T09:06:25.752Z,4572.00
2023-05-02T09:07:25.742Z,5296.00
2023-05-02T09:08:25.682Z,10232.00
2023-05-02T09:09:25.648Z,7868.00
2023-05-02T09:10:25.635Z,13520.00
2023-05-02T09:11:25.632Z,11308.00
2023-05-02T09:12:25.601Z,4052.00
2023-05-02T09:13:25.638Z,3280.00
2023-05-02T09:14:25.571Z,3268.00
2023-05-02T09:15:25.561Z,3348.00
2023-05-02T09:16:25.728Z,3652.00
2023-05-02T09:17:25.529Z,3416.00
2023-05-02T09:18:25.582Z,3292.00
2023-05-02T09:19:25.498Z,3040.00
2023-05-02T09:20:25.480Z,3092.00
2023-05-02T09:21:25.516Z,2904.00
2023-05-02T09:22:25.457Z,2928.00
2023-05-02T09:23:25.436Z,2988.00
2023-05-02T09:24:25.432Z,3088.00
2023-05-02T09:25:25.401Z,3228.00
2023-05-02T09:26:25.388Z,3300.00
2023-05-02T09:27:25.372Z,3428.00
2023-05-02T09:28:25.363Z,3736.00
2023-05-02T09:29:25.346Z,3988.00
2023-05-02T09:30:25.336Z,4024.00
2023-05-02T09:32:25.300Z,4288.00
2023-05-02T09:33:25.437Z,4556.00
2023-05-02T09:34:25.267Z,5032.00
2023-05-02T09:35:25.251Z,4668.00
2023-05-02T09:36:25.232Z,4464.00
2023-05-02T09:37:25.228Z,4608.00
2023-05-02T09:38:25.196Z,4524.00
2023-05-02T09:39:26.076Z,4408.00
2023-05-02T09:40:25.167Z,5788.00
2023-05-02T09:41:25.154Z,7420.00
2023-05-02T09:42:25.142Z,10060.00
2023-05-02T09:43:25.121Z,9620.00
2023-05-02T09:44:25.207Z,8448.00
2023-05-02T09:45:25.103Z,12396.00
2023-05-02T09:46:25.108Z,9208.00
2023-05-02T09:47:25.086Z,5428.00
2023-05-02T09:48:25.046Z,5056.00
2023-05-02T09:49:25.032Z,4592.00
2023-05-02T09:50:25.070Z,4920.00
2023-05-02T09:51:25.000Z,4772.00
2023-05-02T09:52:24.988Z,4644.00
2023-05-02T09:53:24.980Z,4312.00
2023-05-02T09:54:24.981Z,5380.00
2023-05-02T09:55:24.937Z,4872.00
2023-05-02T09:56:26.185Z,4408.00
2023-05-02T09:57:24.906Z,5324.00
2023-05-02T09:58:24.896Z,6152.00
2023-05-02T09:59:24.883Z,5544.00
2023-05-02T10:00:24.865Z,5064.00
2023-05-02T10:01:24.911Z,4612.00
2023-05-02T10:02:24.907Z,4324.00
2023-05-02T10:03:24.814Z,4492.00
2023-05-02T10:04:24.836Z,4028.00
2023-05-02T10:05:24.951Z,4128.00
2023-05-02T10:06:24.802Z,4108.00
2023-05-02T10:07:24.776Z,4296.00
2023-05-02T10:08:24.746Z,4468.00
2023-05-02T10:09:24.737Z,4084.00
2023-05-02T10:10:24.730Z,4320.00
2023-05-02T10:11:24.696Z,4740.00
2023-05-02T10:12:24.708Z,4864.00
2023-05-02T10:13:25.356Z,4688.00
2023-05-02T10:14:25.142Z,4212.00
2023-05-02T10:15:24.634Z,4052.00
2023-05-02T10:16:24.709Z,3972.00
2023-05-02T10:17:24.849Z,3964.00
2023-05-02T10:18:24.590Z,4276.00
2023-05-02T10:19:24.580Z,4428.00
2023-05-02T10:20:25.482Z,4712.00
2023-05-02T10:21:24.556Z,4700.00
2023-05-02T10:22:24.532Z,4780.00
2023-05-02T10:23:24.541Z,4564.00
2023-05-02T10:24:24.515Z,5580.00
2023-05-02T10:25:24.490Z,6256.00
2023-05-02T10:26:24.502Z,6268.00
2023-05-02T10:27:24.475Z,5488.00
2023-05-02T10:28:24.541Z,6184.00
2023-05-02T10:29:24.425Z,5392.00
2023-05-02T10:30:24.402Z,5296.00
2023-05-02T10:31:24.415Z,4856.00
2023-05-02T10:32:24.407Z,4668.00
2023-05-02T10:33:24.438Z,4548.00
2023-05-02T10:34:24.341Z,4664.00
2023-05-02T10:35:24.325Z,4724.00
2023-05-02T10:36:24.330Z,4868.00
2023-05-02T10:37:24.292Z,5088.00
2023-05-02T10:38:24.964Z,5212.00
2023-05-02T10:39:24.322Z,5492.00
2023-05-02T10:40:24.251Z,5636.00
2023-05-02T10:41:24.238Z,5632.00
2023-05-02T10:42:24.228Z,5844.00
2023-05-02T10:43:24.231Z,6072.00
2023-05-02T10:44:24.185Z,6144.00
2023-05-02T10:45:24.173Z,6340.00
2023-05-02T10:46:24.167Z,6436.00
2023-05-02T10:47:24.184Z,7236.00
2023-05-02T10:48:24.149Z,7560.00
2023-05-02T10:49:24.128Z,7900.00
2023-05-02T10:50:24.105Z,7720.00
2023-05-02T10:51:24.076Z,7240.00
2023-05-02T10:52:24.062Z,6512.00
2023-05-02T10:53:24.049Z,5816.00
2023-05-02T10:54:24.043Z,5668.00
2023-05-02T10:55:24.038Z,5576.00
2023-05-02T10:56:24.005Z,5628.00
2023-05-02T10:57:23.997Z,5432.00
2023-05-02T10:58:23.980Z,5176.00
2023-05-02T10:59:23.959Z,4928.00
2023-05-02T11:00:23.983Z,5152.00
2023-05-02T11:01:24.020Z,5208.00
2023-05-02T11:02:24.140Z,4980.00
2023-05-02T11:03:23.897Z,4888.00
2023-05-02T11:04:23.912Z,5072.00
2023-05-02T11:05:23.885Z,5052.00
2023-05-02T11:06:23.913Z,5164.00
2023-05-02T11:07:23.860Z,5108.00
2023-05-02T11:08:23.841Z,4900.00
2023-05-02T11:09:23.815Z,4848.00
2023-05-02T11:10:23.819Z,4952.00
2023-05-02T11:11:23.845Z,4844.00
2023-05-02T11:12:23.769Z,4820.00
2023-05-02T11:13:23.758Z,4792.00
2023-05-02T11:14:23.738Z,5128.00
2023-05-02T11:15:23.719Z,5392.00
2023-05-02T11:16:23.740Z,5068.00
2023-05-02T11:17:23.757Z,4628.00
2023-05-02T11:18:23.693Z,4068.00
2023-05-02T11:19:23.677Z,3952.00
2023-05-02T11:20:23.642Z,5824.00
2023-05-02T11:21:23.630Z,10228.00
2023-05-02T11:22:23.700Z,9916.00
2023-05-02T11:23:23.602Z,10004.00
2023-05-02T11:24:23.590Z,12452.00
2023-05-02T11:25:23.569Z,6664.00
2023-05-02T11:26:23.558Z,5724.00
2023-05-02T11:27:23.565Z,10040.00
2023-05-02T11:28:23.555Z,11092.00
2023-05-02T11:29:23.529Z,10068.00
2023-05-02T11:30:23.500Z,9232.00
2023-05-02T11:31:23.551Z,7132.00
2023-05-02T11:32:23.568Z,6248.00
2023-05-02T11:33:23.608Z,6112.00
2023-05-02T11:34:23.463Z,6228.00
2023-05-02T11:35:23.441Z,6428.00
2023-05-02T11:36:23.427Z,6408.00
2023-05-02T11:37:23.415Z,6544.00
2023-05-02T11:38:23.485Z,7116.00
2023-05-02T11:39:23.425Z,6456.00
2023-05-02T11:40:23.370Z,5524.00
2023-05-02T11:41:23.357Z,5460.00
2023-05-02T11:42:23.349Z,5452.00
2023-05-02T11:43:23.344Z,5988.00
2023-05-02T11:44:23.399Z,8260.00
2023-05-02T11:45:23.309Z,6236.00
2023-05-02T11:46:23.325Z,5936.00
2023-05-02T11:47:23.278Z,5872.00
2023-05-02T11:48:23.288Z,6432.00
2023-05-02T11:49:23.251Z,6468.00
2023-05-02T11:50:23.241Z,6896.00
2023-05-02T11:51:23.243Z,8212.00
2023-05-02T11:52:23.224Z,5472.00
2023-05-02T11:53:23.229Z,5100.00
2023-05-02T11:54:23.379Z,4624.00
2023-05-02T11:55:23.172Z,4420.00
2023-05-02T11:56:23.155Z,4244.00
2023-05-02T11:57:23.149Z,4180.00
2023-05-02T11:58:23.130Z,4076.00
2023-05-02T11:59:23.109Z,4300.00
2023-05-02T12:00:23.125Z,4584.00
2023-05-02T12:01:23.106Z,4684.00
2023-05-02T12:02:23.122Z,4608.00
2023-05-02T12:03:23.164Z,4568.00
2023-05-02T12:04:23.045Z,5356.00
2023-05-02T12:05:23.042Z,7392.00
2023-05-02T12:06:23.146Z,12672.00
2023-05-02T12:07:22.999Z,8940.00
2023-05-02T12:08:22.996Z,11000.00
2023-05-02T12:09:22.973Z,11908.00
2023-05-02T12:10:22.958Z,19712.00
2023-05-02T12:11:22.976Z,15808.00
2023-05-02T12:12:22.934Z,14336.00
2023-05-02T12:13:22.946Z,8192.00
2023-05-02T12:14:22.904Z,13504.00
2023-05-02T12:15:22.890Z,5296.00
2023-05-02T12:16:22.974Z,5436.00
2023-05-02T12:17:22.947Z,5280.00
2023-05-02T12:18:22.850Z,5344.00
2023-05-02T12:19:22.841Z,7432.00
2023-05-02T12:20:22.827Z,5120.00
2023-05-02T12:21:22.821Z,5216.00
2023-05-02T12:22:22.798Z,5316.00
2023-05-02T12:23:22.796Z,5468.00
2023-05-02T12:24:22.778Z,5528.00
2023-05-02T12:25:22.758Z,5520.00
2023-05-02T12:26:22.764Z,4716.00
2023-05-02T12:27:22.728Z,4404.00
2023-05-02T12:28:22.718Z,4220.00
2023-05-02T12:29:22.734Z,4088.00
2023-05-02T12:30:22.689Z,4120.00
2023-05-02T12:31:22.793Z,4016.00
2023-05-02T12:32:22.724Z,4260.00
2023-05-02T12:33:22.683Z,4320.00